Latest Weather Observations for Proserpine

IDQ60801

Issued at 10:35 pm EST Friday 31 October 2014 (issued every 30 minutes, with the page automatically refreshed every 10 minutes)

About weather observations | Map of weather stations | Latest weather observations for QLD | Other Formats
Station Details ID: 033247 Name: PROSERPINE AIRPORT Lat: -20.49 Lon: 148.56 Height: 19.7 m
Data from the previous 72 hours. | See also: Recent months at Proserpine
Date/Time
EST
Temp
°C
App
Temp
°C
Dew
Point
Rel
Hum
%
Delta-T
°C
Wind Press
QNH
hPa
Press
MSL
hPa
Rain
since 9 am
mm
Dir
 
Spd
km/h
Gust
km/h
Spd
kts
Gust
kts
31/10:30pm 19.2 21.9 17.7 91 0.9 S 0 0 0 0 1015.5 - 0.0
31/10:00pm 19.5 22.1 17.5 88 1.2 S 0 0 0 0 1015.5 - 0.0
31/09:30pm 19.4 21.7 16.8 85 1.6 CALM 0 0 0 0 1015.5 - 0.0
31/09:00pm 21.3 24.5 18.9 86 1.5 CALM 0 0 0 0 1015.2 1015.1 0.0
31/08:30pm 21.1 24.0 18.3 84 1.7 CALM 0 0 0 0 1015.0 - 0.0
31/08:00pm 21.8 23.3 18.8 83 1.9 E 9 11 5 6 1014.8 - 0.0
31/07:30pm 22.4 23.9 19.0 81 2.2 E 9 11 5 6 1014.5 - 0.0
31/07:00pm 23.1 24.7 19.1 78 2.5 ESE 9 11 5 6 1014.4 - 0.0
31/06:30pm 24.2 25.6 19.5 75 3.0 ESE 11 17 6 9 1014.0 - 0.0
31/06:00pm 25.4 25.3 18.8 67 4.2 E 17 20 9 11 1013.6 1013.4 0.0
31/05:30pm 26.5 25.6 18.1 60 5.3 E 20 28 11 15 1013.2 - 0.0
31/05:00pm 27.3 25.9 18.9 60 5.4 ESE 24 32 13 17 1012.8 - 0.0
31/04:30pm 28.2 27.0 18.3 55 6.3 E 22 30 12 16 1012.4 - 0.0
31/04:00pm 28.6 27.3 19.0 56 6.2 ESE 24 35 13 19 1012.3 - 0.0
31/03:30pm 29.4 27.9 19.4 55 6.5 ESE 26 35 14 19 1012.2 - 0.0
31/03:00pm 30.1 28.0 19.8 54 6.8 ESE 30 35 16 19 1012.2 1012.0 0.0
31/02:30pm 30.5 28.8 19.8 52 7.0 ESE 28 39 15 21 1012.3 - 0.0
31/02:00pm 29.9 27.8 19.0 52 7.1 ESE 28 39 15 21 1012.5 - 0.0
31/01:30pm 30.4 28.4 19.1 50 7.4 ESE 28 37 15 20 1012.8 - 0.0
31/01:00pm 29.9 27.9 18.3 49 7.5 ESE 26 35 14 19 1013.1 - 0.0
31/12:30pm 31.8 30.1 19.8 49 7.9 SE 28 35 15 19 1013.3 - 0.0
31/12:00pm 30.7 30.8 19.1 50 7.6 ESE 17 32 9 17 1014.0 1013.9 0.0
31/11:30am 30.2 29.9 19.6 53 6.9 E 20 35 11 19 1014.3 - 0.0
31/11:00am 29.5 28.5 18.0 50 7.3 E 20 30 11 16 1014.8 - 0.0
31/10:30am 30.8 30.8 18.2 47 8.1 ENE 15 24 8 13 1015.1 - 0.0
31/10:00am 28.8 29.2 17.3 49 7.3 NE 11 22 6 12 1015.4 - 0.0
31/09:30am 27.7 28.7 17.8 54 6.3 NE 9 17 5 9 1015.6 - 0.0
31/09:00am 27.6 28.5 18.3 57 5.9 NE 11 17 6 9 1015.8 1015.7 0.0
31/08:30am 27.5 28.8 19.3 61 5.3 E 11 22 6 12 1015.8 - 0.0
31/08:00am 26.2 28.6 19.6 67 4.3 E 6 13 3 7 1016.0 - 0.0
31/07:30am 24.8 26.7 19.8 74 3.2 S 9 15 5 8 1015.8 - 0.0
31/07:00am 23.4 25.2 20.3 83 2.0 SSW 11 13 6 7 1015.4 - 0.0
31/06:30am 20.5 22.3 19.5 94 0.6 SW 9 11 5 6 1014.8 - 0.0
31/06:00am 19.1 20.6 18.8 98 0.2 SSW 9 11 5 6 1014.5 1014.4 0.0
31/05:30am 18.2 19.6 17.7 97 0.3 SSW 7 9 4 5 1014.0 - 0.0
31/05:00am 17.5 18.6 16.7 95 0.5 SW 6 7 3 4 1013.8 - 0.0
31/04:30am 17.8 19.1 17.0 95 0.5 S 6 7 3 4 1013.7 - 0.0
31/04:00am 18.3 20.5 17.5 95 0.5 S 2 6 1 3 1013.6 - 0.0
31/03:30am 18.7 20.3 18.2 97 0.3 S 7 9 4 5 1013.6 - 0.0
31/03:00am 17.4 18.4 16.3 93 0.7 SW 6 7 3 4 1013.7 1013.6 0.0
31/02:30am 18.0 19.3 17.0 94 0.6 SW 6 7 3 4 1013.7 - 0.0
31/02:00am 18.3 19.2 17.5 95 0.5 S 9 9 5 5 1013.8 - 0.0
31/01:30am 18.1 20.5 16.9 93 0.7 CALM 0 0 0 0 1013.9 - 0.0
31/01:00am 18.4 20.6 17.4 94 0.6 S 2 6 1 3 1014.3 - 0.0
31/12:30am 19.2 22.0 17.9 92 0.8 CALM 0 0 0 0 1014.8 - 0.0
31/12:00am 19.1 20.6 17.6 91 0.9 SSW 6 7 3 4 1014.7 1014.7 0.0
 
Date/Time
EST
Temp
°C
App
Temp
°C
Dew
Point
Rel
Hum
%
Delta-T
°C
Wind Press
QNH
hPa
Press
MSL
hPa
Rain
since 9 am
mm
Dir
 
Spd
km/h
Gust
km/h
Spd
kts
Gust
kts
30/11:30pm 19.5 21.9 18.0 91 0.9 S 2 6 1 3 1015.1 - 0.0
30/11:00pm 20.1 23.1 18.4 90 1.1 CALM 0 0 0 0 1015.0 - 0.0
30/10:30pm 20.1 22.9 17.9 87 1.4 CALM 0 0 0 0 1014.9 - 0.0
30/10:00pm 20.6 23.2 18.5 88 1.3 NE 2 6 1 3 1015.0 - 0.0
30/09:30pm 20.7 22.4 18.6 88 1.3 E 7 9 4 5 1014.8 - 0.0
30/09:00pm 21.5 23.3 18.7 84 1.8 SE 7 9 4 5 1014.9 1014.7 0.0
30/08:30pm 21.8 24.2 18.8 83 1.9 E 4 7 2 4 1014.3 - 0.0
30/08:00pm 22.3 25.5 18.9 81 2.1 CALM 0 0 0 0 1014.4 - 0.0
30/07:30pm 22.7 25.8 18.7 78 2.5 CALM 0 0 0 0 1014.1 - 0.0
30/07:00pm 24.0 26.7 19.5 76 2.9 NE 4 7 2 4 1013.8 - 0.0
30/06:30pm 24.9 27.1 19.3 71 3.6 N 6 9 3 5 1013.5 - 0.0
30/06:00pm 25.7 26.7 18.6 65 4.5 NNE 11 15 6 8 1013.1 1013.0 0.0
30/05:30pm 26.9 26.6 18.2 59 5.5 NNE 17 22 9 12 1012.8 - 0.0
30/05:00pm 28.5 28.8 18.0 53 6.7 NE 13 20 7 11 1012.3 - 0.0
30/04:30pm 29.7 29.0 18.2 50 7.4 E 19 28 10 15 1011.8 - 0.0
30/04:00pm 30.8 29.2 17.5 45 8.5 ESE 22 33 12 18 1011.4 - 0.0
30/03:30pm 31.2 28.7 15.2 38 9.9 E 22 33 12 18 1011.4 - 0.0
30/03:00pm 31.6 28.9 14.7 36 10.4 E 22 30 12 16 1011.5 1011.4 0.0
30/02:30pm 32.2 29.0 11.9 29 11.9 ESE 20 28 11 15 1011.4 - 0.0
30/02:00pm 33.1 28.9 11.0 26 12.9 SE 24 32 13 17 1011.5 - 0.0
30/01:30pm 32.4 28.6 9.2 24 13.1 E 19 26 10 14 1011.8 - 0.0
30/01:00pm 33.4 29.4 11.9 27 12.7 ESE 24 33 13 18 1012.3 - 0.0
30/12:30pm 33.5 30.6 14.0 30 11.9 ESE 22 32 12 17 1012.7 - 0.0
30/12:00pm 32.8 29.3 16.6 38 10.2 ESE 30 43 16 23 1013.0 1012.9 0.0
30/11:30am 32.0 28.0 14.2 34 10.8 ESE 28 37 15 20 1013.2 - 0.0
30/11:00am 32.7 32.3 15.2 34 10.8 NE 11 22 6 12 1013.5 - 0.0
30/10:30am 31.5 30.1 14.6 36 10.3 NNE 15 22 8 12 1013.8 - 0.0
30/10:00am 30.3 29.4 12.7 34 10.4 NE 9 15 5 8 1014.0 - 0.0
30/09:30am 29.2 29.1 13.8 39 9.2 NNE 7 17 4 9 1014.4 - 0.0
30/09:00am 27.4 27.2 15.7 48 7.2 NNE 11 17 6 9 1014.8 1014.7 0.0
30/08:30am 26.5 28.0 17.6 58 5.6 NE 6 13 3 7 1015.2 - 0.0
30/08:00am 25.5 27.5 19.2 68 4.0 N 7 11 4 6 1015.5 - 0.0
30/07:30am 23.5 25.2 19.4 78 2.6 NW 9 11 5 6 1015.7 - 0.0
30/07:00am 21.5 23.2 19.4 88 1.3 N 9 11 5 6 1015.7 - 0.0
30/06:30am 19.8 21.1 18.5 92 0.8 NNE 9 11 5 6 1016.0 - 0.0
30/06:00am 18.9 21.8 18.1 95 0.5 CALM 0 0 0 0 1016.3 1016.2 0.0
30/05:30am 18.3 20.1 17.5 95 0.5 SW 4 11 2 6 1015.9 - 0.0
30/05:00am 18.4 21.0 17.6 95 0.5 CALM 0 0 0 0 1015.2 - 0.0
30/04:30am 18.5 20.5 17.8 96 0.4 WSW 4 6 2 3 1014.7 - 0.0
30/04:22am 18.3 20.2 17.7 96 0.4 WSW 4 6 2 3 1014.7 - 0.0
30/04:12am 18.1 19.4 17.5 96 0.4 W 7 9 4 5 1014.4 - 0.0
30/04:07am 18.2 19.5 17.6 96 0.4 WSW 7 11 4 6 1014.3 - 0.0
30/04:00am 19.2 21.1 18.9 98 0.2 WSW 7 11 4 6 1014.1 - 0.0
30/03:52am 18.0 19.2 17.4 96 0.4 SW 7 9 4 5 1014.1 - 0.0
30/03:30am 17.4 17.8 16.4 94 0.6 SW 9 11 5 6 1013.4 - 0.0
30/03:26am 17.9 19.0 17.1 95 0.5 SSW 7 11 4 6 1013.3 - 0.0
30/03:00am 18.3 20.9 17.5 95 0.5 CALM 0 0 0 0 1013.0 1012.9 0.0
30/02:31am 18.4 21.0 17.4 94 0.6 CALM 0 6 0 3 1013.1 - 0.0
30/02:30am 18.3 20.8 17.3 94 0.6 CALM 0 0 0 0 1013.1 - 0.0
30/02:07am 18.9 21.8 18.2 96 0.4 CALM 0 0 0 0 1013.0 - 0.0
30/02:00am 18.4 21.0 17.4 94 0.6 CALM 0 0 0 0 1013.0 - 0.0
30/01:53am 18.3 20.7 17.1 93 0.7 CALM 0 0 0 0 1012.9 - 0.0
30/01:30am 18.7 20.6 17.7 94 0.6 SSW 4 7 2 4 1012.9 - 0.0
30/01:00am 19.5 22.2 18.7 95 0.5 NNW 2 6 1 3 1013.2 - 0.0
30/12:30am 19.4 21.6 18.4 94 0.6 NNW 4 9 2 5 1013.3 - 0.0
30/12:00am 19.9 23.0 18.6 92 0.8 N 0 7 0 4 1013.6 1013.6 0.0
 
Date/Time
EST
Temp
°C
App
Temp
°C
Dew
Point
Rel
Hum
%
Delta-T
°C
Wind Press
QNH
hPa
Press
MSL
hPa
Rain
since 9 am
mm
Dir
 
Spd
km/h
Gust
km/h
Spd
kts
Gust
kts
29/11:30pm 20.2 23.0 18.9 92 0.8 N 2 7 1 4 1013.8 - 0.0
29/11:13pm 20.5 22.5 19.2 92 0.8 NNW 7 9 4 5 1014.0 - 0.0
29/11:00pm 21.0 23.2 19.6 92 0.9 NNW 7 9 4 5 1014.2 - 0.0
29/10:30pm 21.0 23.8 19.6 92 0.9 W 4 7 2 4 1014.6 - 0.0
29/10:16pm 20.9 23.0 19.4 91 1.0 NW 7 9 4 5 1014.4 - 0.0
29/10:00pm 21.4 24.0 20.0 92 0.9 N 6 9 3 5 1014.4 - 0.0
29/09:30pm 21.7 25.3 19.8 89 1.2 CALM 0 0 0 0 1014.4 - 0.0
29/09:00pm 22.0 24.5 19.9 88 1.3 N 6 7 3 4 1014.1 1014.0 0.0
29/08:30pm 22.3 23.5 19.8 86 1.6 N 13 19 7 10 1013.8 - 0.0
29/08:00pm 22.8 24.1 20.1 85 1.7 NNW 13 17 7 9 1013.4 - 0.0
29/07:30pm 23.3 24.2 20.1 82 2.1 NNW 15 20 8 11 1013.1 - 0.0
29/07:00pm 24.1 24.5 19.8 77 2.8 NNW 17 22 9 12 1013.0 - 0.0
29/06:30pm 24.8 24.5 19.6 73 3.3 NW 20 28 11 15 1012.9 - 0.0
29/06:00pm 25.7 25.4 19.6 69 3.9 NNW 20 28 11 15 1012.4 1012.2 0.0
29/05:30pm 26.8 26.4 19.4 64 4.8 NNW 20 33 11 18 1012.0 - 0.0
29/05:00pm 28.6 27.8 19.2 56 6.1 NNW 22 32 12 17 1011.6 - 0.0
29/04:30pm 29.3 27.6 19.0 53 6.7 NNW 26 37 14 20 1011.4 - 0.0
29/04:00pm 30.4 28.9 18.5 49 7.7 NNW 24 35 13 19 1011.0 - 0.0
29/03:30pm 31.4 29.4 18.4 46 8.4 NNW 26 37 14 20 1010.8 - 0.0
29/03:00pm 32.4 30.4 18.2 42 9.2 NNW 26 35 14 19 1010.9 1010.8 0.0
29/02:30pm 33.1 30.9 16.9 38 10.3 NNW 24 35 13 19 1011.1 - 0.0
29/02:00pm 34.0 32.5 16.8 35 11.0 N 20 30 11 16 1011.3 - 0.0
29/01:30pm 33.8 32.6 16.2 35 11.1 NNW 17 24 9 13 1011.5 - 0.0
29/01:00pm 33.7 31.6 16.1 34 11.1 NNW 22 32 12 17 1011.9 - 0.0
29/12:30pm 33.0 32.1 16.8 38 10.3 N 17 24 9 13 1012.2 - 0.0
29/12:00pm 33.3 31.9 17.0 37 10.4 NNE 20 24 11 13 1012.7 1012.6 0.0
29/11:30am 32.8 32.3 15.8 36 10.6 N 13 20 7 11 1013.1 - 0.0
29/11:00am 32.7 32.0 16.5 37 10.2 N 15 24 8 13 1013.6 - 0.0
29/10:30am 31.6 29.3 12.9 32 11.1 N 17 22 9 12 1014.0 - 0.0
29/10:00am 30.3 29.5 16.0 42 8.9 N 15 24 8 13 1014.3 - 0.0
29/09:30am 29.2 28.9 17.4 49 7.5 NNW 15 24 8 13 1014.3 - 0.0
29/09:00am 28.5 28.7 19.4 57 5.9 N 17 24 9 13 1014.4 1014.3 0.0
29/08:30am 27.3 27.5 19.4 62 5.1 NNW 17 26 9 14 1014.4 - 0.0
29/08:00am 25.2 26.0 19.8 72 3.5 N 15 24 8 13 1014.4 - 0.0
29/07:30am 23.6 25.6 19.9 80 2.4 NW 9 13 5 7 1014.4 - 0.0
29/07:00am 20.8 23.1 18.6 87 1.4 NNW 4 9 2 5 1014.2 - 0.0
29/06:30am 18.6 20.0 17.8 95 0.5 WNW 7 9 4 5 1014.2 - 0.0
29/06:00am 17.1 18.2 16.6 97 0.3 W 6 7 3 4 1014.0 1013.9 0.0
29/05:30am 16.9 17.9 16.4 97 0.3 WNW 6 7 3 4 1013.8 - 0.0
29/05:00am 17.2 18.7 16.6 96 0.4 W 4 7 2 4 1013.7 - 0.0
29/04:30am 17.2 18.0 16.4 95 0.5 WSW 7 11 4 6 1013.8 - 0.0
29/04:00am 17.7 18.9 16.9 95 0.5 WNW 6 7 3 4 1013.7 - 0.0
29/03:30am 18.7 20.3 17.9 95 0.5 E 6 7 3 4 1013.7 - 0.0
29/03:13am 19.2 20.9 18.4 95 0.5 SE 7 11 4 6 1013.5 - 0.0
29/03:00am 19.3 21.6 18.6 96 0.4 SE 4 9 2 5 1013.5 1013.5 0.0
29/02:30am 19.0 20.3 18.5 97 0.3 SSE 9 11 5 6 1013.3 - 0.0
29/02:22am 19.0 20.2 18.3 96 0.4 SSE 9 11 5 6 1013.2 - 0.0
29/02:00am 19.0 21.9 18.2 95 0.5 CALM 0 2 0 1 1012.6 - 0.0
29/01:30am 19.3 20.6 18.5 95 0.5 N 9 11 5 6 1012.6 - 0.0
29/01:00am 19.6 21.1 18.8 95 0.5 N 9 11 5 6 1012.9 - 0.0
29/12:30am 19.6 20.6 18.6 94 0.6 N 11 13 6 7 1012.9 - 0.0
29/12:00am 19.9 21.3 18.7 93 0.7 N 9 11 5 6 1013.2 1013.1 0.0
 
Date/Time
EST
Temp
°C
App
Temp
°C
Dew
Point
Rel
Hum
%
Delta-T
°C
Wind Press
QNH
hPa
Press
MSL
hPa
Rain
since 9 am
mm
Dir
 
Spd
km/h
Gust
km/h
Spd
kts
Gust
kts
28/11:30pm 19.9 21.3 18.6 92 0.8 N 9 13 5 7 1013.5 - 0.0
28/11:00pm 20.2 21.7 18.9 92 0.8 N 9 11 5 6 1013.7 - 0.0

Other Formats:

Comma delimited format used in spreadsheet applications
http://www.bom.gov.au/fwo/IDQ60801/IDQ60801.94365.axf

JavaScript Object Notation format (JSON) in row-major order
http://www.bom.gov.au/fwo/IDQ60801/IDQ60801.94365.json